Time;durP1;ratioP1;P1;durP2;ratioP2;P2;SDS_P1;SDS_P2;PMS_P1;PMS_P2;Temp;Humidity;BMP_temperature;BMP_pressure;BME280_temperature;BME280_humidity;BME280_pressure;Samples;Min_cycle;Max_cycle;Signal;HPM_P1;HPM_P2
2023/08/07 00:01:15;;;;;;;;;;;;;;;18.38;57.50;101646.88;4148919;28;20012;-58
2023/08/07 00:03:18;;;;;;;;;;;;;;;18.36;57.32;101642.50;4148731;28;19926;-58
2023/08/07 00:05:20;;;;;;;;;;;;;;;18.37;57.12;101648.66;4147992;28;19925;-58
2023/08/07 00:07:21;;;;;;;;;;;;;;;18.36;57.11;101650.50;4148610;28;19933;-57
2023/08/07 00:09:23;;;;;;;;;;;;;;;18.37;57.43;101656.66;4148745;28;20442;-57
2023/08/07 00:11:24;;;;;;;;;;;;;;;18.36;57.37;101647.81;4148984;28;20341;-57
2023/08/07 00:13:26;;;;;;;;;;;;;;;18.36;57.44;101649.63;4148862;28;19926;-57
2023/08/07 00:15:28;;;;;;;;;;;;;;;18.35;57.27;101651.44;4147818;28;19929;-57
2023/08/07 00:17:29;;;;;;;;;;;;;;;18.35;57.41;101648.75;4148475;28;19971;-57
2023/08/07 00:19:31;;;;;;;;;;;;;;;18.35;57.31;101659.41;4148675;28;19933;-58
2023/08/07 00:21:34;;;;;;;;;;;;;;;18.35;57.42;101662.06;4148413;28;20029;-57
2023/08/07 00:23:35;;;;;;;;;;;;;;;18.36;57.33;101658.47;4148155;28;19925;-57
2023/08/07 00:25:36;;;;;;;;;;;;;;;18.37;57.32;101659.31;4147680;28;19925;-57
2023/08/07 00:27:38;;;;;;;;;;;;;;;18.35;57.29;101654.09;4148512;28;19926;-57
2023/08/07 00:29:40;;;;;;;;;;;;;;;18.36;57.38;101668.28;4148498;28;20004;-58
2023/08/07 00:31:41;;;;;;;;;;;;;;;18.35;57.39;101664.75;4148336;28;19969;-58
2023/08/07 00:33:43;;;;;;;;;;;;;;;18.35;57.35;101664.75;4148356;28;19980;-57
2023/08/07 00:35:44;;;;;;;;;;;;;;;18.35;57.41;101658.56;4147573;28;20450;-57
2023/08/07 00:37:46;;;;;;;;;;;;;;;18.36;57.38;101662.97;4148116;28;19932;-57
2023/08/07 00:39:47;;;;;;;;;;;;;;;18.34;57.11;101655.03;4148069;28;19925;-58
2023/08/07 00:41:49;;;;;;;;;;;;;;;18.34;57.16;101656.84;4148280;28;19925;-57
2023/08/07 00:43:50;;;;;;;;;;;;;;;18.33;57.45;101650.63;4148283;28;19944;-57
2023/08/07 00:45:52;;;;;;;;;;;;;;;18.34;57.35;101651.50;4147599;28;20091;-57
2023/08/07 00:47:53;;;;;;;;;;;;;;;18.34;57.49;101654.19;4147998;28;19925;-57
2023/08/07 00:49:56;;;;;;;;;;;;;;;18.33;57.39;101647.13;4148170;28;20008;-57
2023/08/07 00:51:57;;;;;;;;;;;;;;;18.32;57.46;101643.63;4148055;28;19948;-57
2023/08/07 00:54:01;;;;;;;;;;;;;;;18.32;57.41;101651.59;4148097;28;19957;-57
2023/08/07 00:56:03;;;;;;;;;;;;;;;18.33;57.23;101647.97;4147280;28;20017;-57
2023/08/07 00:58:04;;;;;;;;;;;;;;;18.32;57.53;101648.94;4148020;28;19948;-57
2023/08/07 01:00:07;;;;;;;;;;;;;;;18.33;57.39;101652.44;4148123;28;19976;-58
2023/08/07 01:02:09;;;;;;;;;;;;;;;18.32;57.51;101651.59;4148114;28;20013;-57
2023/08/07 01:04:11;;;;;;;;;;;;;;;18.33;57.61;101647.13;4147854;28;20374;-58
2023/08/07 01:06:12;;;;;;;;;;;;;;;18.32;57.17;101648.06;4147131;28;19929;-57
2023/08/07 01:08:14;;;;;;;;;;;;;;;18.31;57.27;101646.34;4148275;28;19957;-57
2023/08/07 01:10:16;;;;;;;;;;;;;;;18.30;57.57;101637.50;4148004;28;20374;-57
2023/08/07 01:12:17;;;;;;;;;;;;;;;18.31;57.56;101641.00;4146995;28;19925;-57
2023/08/07 01:14:31;;;;;;;;;;;;;;;18.31;57.59;101646.34;4147921;28;20020;-57
2023/08/07 01:16:42;;;;;;;;;;;;;;;18.29;57.28;101648.25;4146141;28;19929;-57
2023/08/07 01:18:44;;;;;;;;;;;;;;;18.29;57.71;101651.75;4147845;28;20021;-57
2023/08/07 01:20:46;;;;;;;;;;;;;;;18.30;57.59;101655.25;4147721;28;20053;-57
2023/08/07 01:22:48;;;;;;;;;;;;;;;18.28;57.60;101655.34;4148064;28;19926;-57
2023/08/07 01:24:50;;;;;;;;;;;;;;;18.28;57.43;101652.69;4147894;28;19925;-57
2023/08/07 01:26:53;;;;;;;;;;;;;;;18.27;57.59;101642.97;4147267;28;19929;-57
2023/08/07 01:28:55;;;;;;;;;;;;;;;18.28;57.59;101650.03;4148055;28;19961;-57
2023/08/07 01:31:00;;;;;;;;;;;;;;;18.28;57.55;101646.53;4147683;28;19932;-55
2023/08/07 01:33:01;;;;;;;;;;;;;;;18.28;57.53;101651.84;4147717;28;19926;-56
2023/08/07 01:35:05;;;;;;;;;;;;;;;18.27;57.76;101645.63;4147077;28;20445;-57
2023/08/07 01:37:07;;;;;;;;;;;;;;;18.26;57.48;101645.72;4146551;28;20325;-54
2023/08/07 01:39:09;;;;;;;;;;;;;;;18.26;57.78;101648.41;4147705;28;19969;-57
2023/08/07 01:41:10;;;;;;;;;;;;;;;18.25;57.29;101647.53;4146857;28;20012;-59
2023/08/07 01:43:12;;;;;;;;;;;;;;;18.25;57.66;101641.34;4147815;28;19952;-58
2023/08/07 01:45:13;;;;;;;;;;;;;;;18.25;57.42;101638.69;4147173;28;19930;-58
2023/08/07 01:47:15;;;;;;;;;;;;;;;18.25;57.56;101652.00;4147597;28;19926;-58
2023/08/07 01:49:16;;;;;;;;;;;;;;;18.24;57.40;101651.16;4147298;28;19926;-58
2023/08/07 01:51:18;;;;;;;;;;;;;;;18.24;57.90;101648.47;4148068;28;20031;-58
2023/08/07 01:53:19;;;;;;;;;;;;;;;18.24;57.51;101645.81;4150838;28;19933;-58
2023/08/07 01:55:22;;;;;;;;;;;;;;;18.22;57.72;101647.69;4150184;28;19930;-57
2023/08/07 01:57:23;;;;;;;;;;;;;;;18.23;57.67;101651.19;4150719;28;19929;-58
2023/08/07 01:59:25;;;;;;;;;;;;;;;18.22;57.63;101650.34;4150868;28;20355;-58
2023/08/07 02:01:26;;;;;;;;;;;;;;;18.22;57.66;101649.50;4150761;28;19948;-57
2023/08/07 02:03:28;;;;;;;;;;;;;;;18.22;57.54;101650.34;4150794;28;19926;-58
2023/08/07 02:05:30;;;;;;;;;;;;;;;18.22;57.65;101654.84;4150176;28;20020;-57
2023/08/07 02:07:32;;;;;;;;;;;;;;;18.22;57.70;101649.50;4150560;28;20005;-58
2023/08/07 02:09:33;;;;;;;;;;;;;;;18.20;57.81;101646.91;4150378;28;19936;-58
2023/08/07 02:11:35;;;;;;;;;;;;;;;18.20;57.51;101646.91;4149509;28;19925;-57
2023/08/07 02:13:36;;;;;;;;;;;;;;;18.20;57.79;101650.44;4150728;28;20008;-55
2023/08/07 02:15:38;;;;;;;;;;;;;;;18.19;57.69;101651.38;4149838;28;20411;-58
2023/08/07 02:17:41;;;;;;;;;;;;;;;18.19;57.44;101650.53;4150450;28;20302;-57
2023/08/07 02:19:43;;;;;;;;;;;;;;;18.19;57.72;101651.38;4150087;28;19925;-57
2023/08/07 02:21:44;;;;;;;;;;;;;;;18.19;57.58;101645.22;4150464;28;19936;-58
2023/08/07 02:23:45;;;;;;;;;;;;;;;18.18;57.87;101654.13;4150346;28;19926;-57
2023/08/07 02:25:48;;;;;;;;;;;;;;;18.19;57.63;101650.53;4149493;28;20071;-57
2023/08/07 02:27:49;;;;;;;;;;;;;;;18.18;57.76;101654.97;4150131;28;19945;-58
2023/08/07 02:29:51;;;;;;;;;;;;;;;18.18;57.67;101654.97;4150375;28;19929;-57
2023/08/07 02:31:53;;;;;;;;;;;;;;;18.17;57.95;101652.41;4150222;28;20019;-57
2023/08/07 02:33:54;;;;;;;;;;;;;;;18.18;57.80;101651.47;4149901;28;19957;-57
2023/08/07 02:35:56;;;;;;;;;;;;;;;18.17;58.06;101652.41;4149581;28;19925;-57
2023/08/07 02:37:58;;;;;;;;;;;;;;;18.16;58.02;101648.88;4150329;28;19926;-57
2023/08/07 02:39:59;;;;;;;;;;;;;;;18.17;57.93;101641.75;4150403;28;19926;-57
2023/08/07 02:42:01;;;;;;;;;;;;;;;18.16;57.82;101646.22;4150357;28;19960;-57
2023/08/07 02:44:02;;;;;;;;;;;;;;;18.16;57.74;101651.53;4150042;28;20402;-57
2023/08/07 02:46:04;;;;;;;;;;;;;;;18.16;58.02;101643.53;4149554;28;20319;-57
2023/08/07 02:48:05;;;;;;;;;;;;;;;18.16;58.04;101642.69;4149667;28;20357;-57
2023/08/07 02:50:07;;;;;;;;;;;;;;;18.15;58.04;101644.50;4150033;28;19932;-57
2023/08/07 02:52:08;;;;;;;;;;;;;;;18.15;57.96;101643.63;4149827;28;19957;-58
2023/08/07 02:54:10;;;;;;;;;;;;;;;18.14;57.97;101656.09;4148760;28;19984;-57
2023/08/07 02:56:11;;;;;;;;;;;;;;;18.15;57.86;101651.63;4148912;28;19925;-57
2023/08/07 02:58:13;;;;;;;;;;;;;;;18.15;57.97;101651.63;4149613;28;19987;-58
2023/08/07 03:00:14;;;;;;;;;;;;;;;18.14;58.02;101650.78;4149843;28;19930;-57
2023/08/07 03:02:16;;;;;;;;;;;;;;;18.14;57.76;101650.78;4149244;28;19925;-58
2023/08/07 03:04:18;;;;;;;;;;;;;;;18.13;58.00;101646.38;4149884;28;19926;-57
2023/08/07 03:06:19;;;;;;;;;;;;;;;18.13;58.04;101651.72;4149195;28;19925;-57
2023/08/07 03:08:21;;;;;;;;;;;;;;;18.13;58.02;101646.38;4149687;28;19925;-57
2023/08/07 03:10:22;;;;;;;;;;;;;;;18.12;58.12;101647.31;4149504;28;20017;-57
2023/08/07 03:12:27;;;;;;;;;;;;;;;18.12;58.09;101649.13;4149490;28;20016;-57
2023/08/07 03:14:28;;;;;;;;;;;;;;;18.12;57.93;101652.66;4149705;28;19929;-57
2023/08/07 03:16:30;;;;;;;;;;;;;;;18.11;58.04;101650.91;4148383;28;19933;-57
2023/08/07 03:18:31;;;;;;;;;;;;;;;18.11;58.18;101650.06;4149606;28;19968;-57
2023/08/07 03:20:36;;;;;;;;;;;;;;;18.11;57.92;101647.41;4149523;28;19925;-58
2023/08/07 03:22:37;;;;;;;;;;;;;;;18.11;58.05;101647.41;4149757;28;20272;-57
2023/08/07 03:24:39;;;;;;;;;;;;;;;18.10;58.18;101651.00;4149601;28;20272;-58
2023/08/07 03:26:41;;;;;;;;;;;;;;;18.10;57.95;101651.00;4148579;28;19972;-56
2023/08/07 03:28:42;;;;;;;;;;;;;;;18.09;57.86;101652.78;4148164;28;20327;-58
2023/08/07 03:30:44;;;;;;;;;;;;;;;18.09;58.07;101654.59;4149103;28;19926;-57
2023/08/07 03:32:46;;;;;;;;;;;;;;;18.09;58.22;101649.28;4149382;28;20072;-57
2023/08/07 03:34:47;;;;;;;;;;;;;;;18.08;58.25;101661.75;4149303;28;19926;-57
2023/08/07 03:36:49;;;;;;;;;;;;;;;18.08;57.94;101664.41;4148331;28;20017;-57
2023/08/07 03:38:50;;;;;;;;;;;;;;;18.08;58.02;101664.41;4149328;28;19933;-57
2023/08/07 03:40:51;;;;;;;;;;;;;;;18.08;58.03;101666.19;4149264;28;20024;-58
2023/08/07 03:42:53;;;;;;;;;;;;;;;18.08;58.00;101669.75;4149209;28;19948;-57
2023/08/07 03:44:54;;;;;;;;;;;;;;;18.08;58.02;101663.53;4149139;28;19935;-57
2023/08/07 03:46:57;;;;;;;;;;;;;;;18.07;58.10;101669.78;4147994;28;19932;-58
2023/08/07 03:48:59;;;;;;;;;;;;;;;18.06;58.24;101660.97;4148993;28;19972;-57
2023/08/07 03:51:14;;;;;;;;;;;;;;;18.07;58.01;101662.69;4149346;28;19926;-58
2023/08/07 03:53:16;;;;;;;;;;;;;;;18.06;58.23;101665.41;4149013;28;19932;-56
2023/08/07 03:55:18;;;;;;;;;;;;;;;18.06;58.09;101663.63;4148900;28;19957;-57
2023/08/07 03:57:19;;;;;;;;;;;;;;;18.05;57.89;101667.22;4148316;28;20371;-57
2023/08/07 03:59:21;;;;;;;;;;;;;;;18.04;58.21;101666.38;4148054;28;19957;-56
2023/08/07 04:01:22;;;;;;;;;;;;;;;18.04;58.27;101657.50;4148484;28;19932;-56
2023/08/07 04:03:24;;;;;;;;;;;;;;;18.03;58.25;101659.31;4148806;28;20426;-55
2023/08/07 04:05:25;;;;;;;;;;;;;;;18.04;58.31;101663.72;4148436;28;19925;-58
2023/08/07 04:07:27;;;;;;;;;;;;;;;18.04;58.34;101660.16;4148373;28;20347;-56
2023/08/07 04:09:29;;;;;;;;;;;;;;;18.03;58.33;101661.97;4148678;28;20032;-57
2023/08/07 04:11:30;;;;;;;;;;;;;;;18.03;58.39;101664.66;4147385;28;19932;-57
2023/08/07 04:13:32;;;;;;;;;;;;;;;18.03;58.37;101663.75;4148696;28;19972;-56
2023/08/07 04:15:33;;;;;;;;;;;;;;;18.03;58.36;101661.09;4147084;28;20414;-55
2023/08/07 04:17:36;;;;;;;;;;;;;;;18.02;58.20;101668.25;4148585;28;20384;-56
2023/08/07 04:19:37;;;;;;;;;;;;;;;18.02;58.34;101665.59;4148752;28;19926;-56
2023/08/07 04:21:39;;;;;;;;;;;;;;;18.03;58.21;101666.44;4148480;28;19979;-58
2023/08/07 04:23:40;;;;;;;;;;;;;;;18.01;58.42;101663.84;4148726;28;19926;-57
2023/08/07 04:25:44;;;;;;;;;;;;;;;18.02;58.46;101670.03;4148026;28;20285;-57
2023/08/07 04:27:46;;;;;;;;;;;;;;;18.02;58.47;101670.91;4148780;28;20362;-57
2023/08/07 04:29:47;;;;;;;;;;;;;;;18.01;58.37;101674.50;4148204;28;20020;-58
2023/08/07 04:31:49;;;;;;;;;;;;;;;18.01;58.17;101669.19;4148470;28;19925;-58
2023/08/07 04:33:51;;;;;;;;;;;;;;;18.02;58.22;101680.66;4148537;28;20387;-57
2023/08/07 04:35:52;;;;;;;;;;;;;;;18.02;58.48;101675.34;4147700;28;19925;-58
2023/08/07 04:37:54;;;;;;;;;;;;;;;18.01;58.35;101671.84;4148273;28;19932;-58
2023/08/07 04:39:55;;;;;;;;;;;;;;;18.01;58.43;101665.66;4148574;28;19968;-58
2023/08/07 04:41:56;;;;;;;;;;;;;;;18.00;58.09;101667.44;4148261;28;20028;-58
2023/08/07 04:43:58;;;;;;;;;;;;;;;18.00;58.25;101675.44;4147960;28;19925;-57
2023/08/07 04:46:00;;;;;;;;;;;;;;;18.00;58.28;101679.91;4147775;28;19933;-58
2023/08/07 04:48:01;;;;;;;;;;;;;;;17.99;58.36;101676.38;4148295;28;20310;-58
2023/08/07 04:50:03;;;;;;;;;;;;;;;18.01;58.22;101681.63;4148396;28;20008;-57
2023/08/07 04:52:05;;;;;;;;;;;;;;;18.00;58.39;101683.41;4147064;28;19995;-58
2023/08/07 04:54:24;;;;;;;;;;;;;;;18.00;58.36;101679.91;4148391;28;19930;-57
2023/08/07 04:56:26;;;;;;;;;;;;;;;17.99;58.43;101681.69;4147432;28;20315;-57
2023/08/07 04:58:28;;;;;;;;;;;;;;;18.00;58.10;101685.25;4147963;28;19925;-57
2023/08/07 05:00:29;;;;;;;;;;;;;;;18.00;58.56;101679.91;4148166;28;20055;-57
2023/08/07 05:02:31;;;;;;;;;;;;;;;17.99;58.47;101681.69;4147918;28;19926;-57
2023/08/07 05:04:32;;;;;;;;;;;;;;;17.99;58.33;101683.50;4148093;28;19929;-56
2023/08/07 05:06:34;;;;;;;;;;;;;;;17.98;58.51;101690.66;4147496;28;19933;-57
2023/08/07 05:08:35;;;;;;;;;;;;;;;17.99;58.51;101691.50;4148186;28;20318;-57
2023/08/07 05:10:37;;;;;;;;;;;;;;;17.99;58.43;101686.16;4147983;28;19953;-58
2023/08/07 05:12:38;;;;;;;;;;;;;;;17.99;58.42;101689.69;4147727;28;19965;-57
2023/08/07 05:14:40;;;;;;;;;;;;;;;17.99;58.35;101694.16;4148000;28;20374;-57
2023/08/07 05:16:42;;;;;;;;;;;;;;;17.99;58.48;101694.16;4147266;28;19960;-57
2023/08/07 05:18:43;;;;;;;;;;;;;;;17.99;58.44;101699.47;4148005;28;20436;-58
2023/08/07 05:20:45;;;;;;;;;;;;;;;17.98;58.44;101698.63;4148084;28;19933;-58
2023/08/07 05:22:46;;;;;;;;;;;;;;;17.98;58.24;101698.63;4147854;28;19925;-58
2023/08/07 05:24:49;;;;;;;;;;;;;;;18.00;58.42;101693.22;4148023;28;19932;-57
2023/08/07 05:26:50;;;;;;;;;;;;;;;18.00;58.25;101698.53;4148194;28;19968;-57
2023/08/07 05:28:52;;;;;;;;;;;;;;;17.99;58.49;101703.00;4151386;28;19951;-57
2023/08/07 05:30:53;;;;;;;;;;;;;;;17.99;58.49;101692.34;4151290;28;20329;-57
2023/08/07 05:32:55;;;;;;;;;;;;;;;17.99;58.46;101700.31;4151361;28;19937;-56
2023/08/07 05:34:56;;;;;;;;;;;;;;;17.99;58.48;101702.13;4150138;28;19925;-57
2023/08/07 05:36:58;;;;;;;;;;;;;;;18.00;58.33;101701.22;4150356;28;19968;-54
2023/08/07 05:38:59;;;;;;;;;;;;;;;17.99;58.39;101703.00;4151248;28;20008;-58
2023/08/07 05:41:01;;;;;;;;;;;;;;;18.00;58.53;101701.22;4150612;28;20020;-56
2023/08/07 05:43:03;;;;;;;;;;;;;;;18.00;58.56;101702.06;4151224;28;19926;-58
2023/08/07 05:45:04;;;;;;;;;;;;;;;17.99;58.53;101705.66;4150756;28;19925;-58
2023/08/07 05:47:06;;;;;;;;;;;;;;;18.00;58.46;101706.53;4150053;28;20037;-57
2023/08/07 05:49:08;;;;;;;;;;;;;;;18.02;58.37;101710.81;4150978;28;19925;-57
2023/08/07 05:51:09;;;;;;;;;;;;;;;18.02;58.27;101720.59;4150927;28;20370;-57
2023/08/07 05:53:11;;;;;;;;;;;;;;;18.01;58.38;101717.09;4151095;28;19964;-57
2023/08/07 05:55:12;;;;;;;;;;;;;;;18.01;58.49;101716.25;4150950;28;19929;-58
2023/08/07 05:57:14;;;;;;;;;;;;;;;18.01;58.50;101714.44;4149824;28;20364;-58
2023/08/07 05:59:15;;;;;;;;;;;;;;;18.01;58.09;101716.25;4150899;28;19966;-57
2023/08/07 06:01:17;;;;;;;;;;;;;;;18.01;58.38;101719.75;4150789;28;19932;-57
2023/08/07 06:03:19;;;;;;;;;;;;;;;18.01;58.25;101717.09;4150839;28;20390;-57
2023/08/07 06:05:20;;;;;;;;;;;;;;;18.01;58.22;101714.44;4150582;28;19925;-57
2023/08/07 06:07:22;;;;;;;;;;;;;;;18.01;58.55;101705.59;4150288;28;19932;-58
2023/08/07 06:09:23;;;;;;;;;;;;;;;18.02;58.44;101708.16;4150695;28;19925;-57
2023/08/07 06:11:25;;;;;;;;;;;;;;;18.02;58.61;101704.63;4150090;28;19968;-57
2023/08/07 06:13:26;;;;;;;;;;;;;;;18.03;58.70;101706.34;4150629;28;19979;-57
2023/08/07 06:15:37;;;;;;;;;;;;;;;18.03;58.27;101709.00;4150471;28;19929;-57
2023/08/07 06:17:39;;;;;;;;;;;;;;;18.03;58.21;101701.03;4149781;28;20020;-57
2023/08/07 06:19:40;;;;;;;;;;;;;;;18.04;58.57;101713.41;4150689;28;20008;-57
2023/08/07 06:21:42;;;;;;;;;;;;;;;18.02;58.66;101713.50;4150520;28;19932;-57
2023/08/07 06:23:43;;;;;;;;;;;;;;;18.02;58.59;101726.81;4150287;28;19956;-57
2023/08/07 06:25:45;;;;;;;;;;;;;;;18.02;58.78;101715.28;4149966;28;19926;-57
2023/08/07 06:27:46;;;;;;;;;;;;;;;18.02;58.57;101716.16;4149539;28;19976;-57
2023/08/07 06:29:48;;;;;;;;;;;;;;;18.01;58.91;101717.09;4150437;28;20438;-57
2023/08/07 06:31:49;;;;;;;;;;;;;;;18.02;58.86;101724.13;4150348;28;19925;-57
2023/08/07 06:33:51;;;;;;;;;;;;;;;18.04;58.91;101724.06;4150036;28;19929;-57
2023/08/07 06:35:53;;;;;;;;;;;;;;;18.03;58.96;101725.00;4150096;28;20012;-58
2023/08/07 06:37:54;;;;;;;;;;;;;;;18.02;59.07;101736.56;4147990;28;19930;-58
2023/08/07 06:39:56;;;;;;;;;;;;;;;18.04;58.80;101737.38;4149778;28;20377;-57
2023/08/07 06:42:00;;;;;;;;;;;;;;;18.03;59.18;101740.97;4150320;28;20299;-57
2023/08/07 06:44:01;;;;;;;;;;;;;;;18.03;58.92;101738.28;4150250;28;20302;-57
2023/08/07 06:46:03;;;;;;;;;;;;;;;18.03;58.86;101739.19;4148474;28;20008;-57
2023/08/07 06:48:05;;;;;;;;;;;;;;;18.04;59.27;101740.91;4150014;28;19970;-57
2023/08/07 06:50:06;;;;;;;;;;;;;;;18.04;58.96;101738.25;4150269;28;19929;-57
2023/08/07 06:52:08;;;;;;;;;;;;;;;18.06;59.15;101743.47;4149978;28;20039;-58
2023/08/07 06:54:09;;;;;;;;;;;;;;;18.06;59.03;101747.91;4149885;28;19925;-57
2023/08/07 06:56:11;;;;;;;;;;;;;;;18.07;59.26;101754.97;4149547;28;19925;-57
2023/08/07 06:58:12;;;;;;;;;;;;;;;18.07;59.19;101754.97;4149641;28;19925;-57
2023/08/07 07:00:15;;;;;;;;;;;;;;;18.07;59.11;101758.53;4149962;28;19926;-58
2023/08/07 07:02:16;;;;;;;;;;;;;;;18.09;59.16;101758.44;4149967;28;19929;-57
2023/08/07 07:04:18;;;;;;;;;;;;;;;18.08;59.13;101764.69;4149880;28;19925;-57
2023/08/07 07:06:20;;;;;;;;;;;;;;;18.08;59.22;101770.00;4149187;28;19948;-56
2023/08/07 07:08:23;;;;;;;;;;;;;;;18.08;59.30;101770.00;4149732;28;19995;-56
2023/08/07 07:10:24;;;;;;;;;;;;;;;18.09;58.87;101777.91;4149491;28;19970;-56
2023/08/07 07:12:26;;;;;;;;;;;;;;;18.09;59.24;101779.72;4149691;28;20000;-57
2023/08/07 07:14:28;;;;;;;;;;;;;;;18.09;59.17;101777.91;4149747;28;19929;-54
2023/08/07 07:16:29;;;;;;;;;;;;;;;18.09;59.00;101775.25;4148873;28;19930;-55
2023/08/07 07:18:31;;;;;;;;;;;;;;;18.10;59.20;101773.47;4149434;28;19930;-57
2023/08/07 07:20:33;;;;;;;;;;;;;;;18.10;59.02;101771.66;4149625;28;20036;-53
2023/08/07 07:22:35;;;;;;;;;;;;;;;18.11;59.25;101773.38;4149331;28;19967;-58
2023/08/07 07:24:37;;;;;;;;;;;;;;;18.11;59.22;101777.88;4149575;28;19940;-58
2023/08/07 07:26:39;;;;;;;;;;;;;;;18.10;59.16;101774.31;4148712;28;20395;-58
2023/08/07 07:28:40;;;;;;;;;;;;;;;18.13;58.78;101773.28;4149461;28;19925;-57
2023/08/07 07:30:42;;;;;;;;;;;;;;;18.15;58.83;101764.31;4149493;28;19926;-58
2023/08/07 07:32:43;;;;;;;;;;;;;;;18.16;58.58;101767.84;4149462;28;20371;-58
2023/08/07 07:34:45;;;;;;;;;;;;;;;18.17;58.96;101774.88;4149305;28;19925;-57
2023/08/07 07:36:46;;;;;;;;;;;;;;;18.14;59.12;101773.25;4148603;28;19930;-57
2023/08/07 07:38:48;;;;;;;;;;;;;;;18.15;58.84;101776.75;4148850;28;19933;-57
2023/08/07 07:40:50;;;;;;;;;;;;;;;18.15;58.84;101777.63;4149187;28;19925;-57
2023/08/07 07:42:51;;;;;;;;;;;;;;;18.16;59.05;101776.66;4149110;28;19987;-57
2023/08/07 07:44:53;;;;;;;;;;;;;;;18.17;58.84;101772.22;4149326;28;19957;-58
2023/08/07 07:46:54;;;;;;;;;;;;;;;18.20;58.56;101777.38;4148227;28;20024;-56
2023/08/07 07:48:56;;;;;;;;;;;;;;;18.20;58.87;101778.25;4148284;28;19932;-56
2023/08/07 07:50:59;;;;;;;;;;;;;;;18.20;58.82;101783.56;4148968;28;20302;-57
2023/08/07 07:53:01;;;;;;;;;;;;;;;18.19;58.89;101784.50;4148775;28;19976;-58
2023/08/07 07:55:03;;;;;;;;;;;;;;;18.22;58.95;101779.97;4149188;28;19933;-58
2023/08/07 07:57:04;;;;;;;;;;;;;;;18.26;58.74;101774.41;4148249;28;19926;-58
2023/08/07 07:59:06;;;;;;;;;;;;;;;18.28;58.56;101777.00;4149046;28;19963;-57
2023/08/07 08:01:09;;;;;;;;;;;;;;;18.28;58.60;101782.31;4148889;28;19929;-58
2023/08/07 08:03:12;;;;;;;;;;;;;;;18.29;58.72;101779.56;4149101;28;20371;-57
2023/08/07 08:05:15;;;;;;;;;;;;;;;18.32;58.45;101789.22;4149013;28;19929;-55
2023/08/07 08:07:17;;;;;;;;;;;;;;;18.32;58.51;101794.53;4147773;28;20006;-57
2023/08/07 08:09:18;;;;;;;;;;;;;;;18.30;58.49;101794.63;4148914;28;19936;-57
2023/08/07 08:11:20;;;;;;;;;;;;;;;18.33;58.25;101805.09;4148539;28;19960;-58
2023/08/07 08:13:22;;;;;;;;;;;;;;;18.35;58.12;101795.25;4148801;28;19929;-58
2023/08/07 08:15:24;;;;;;;;;;;;;;;18.36;58.49;101804.09;4148787;28;20012;-57
2023/08/07 08:17:25;;;;;;;;;;;;;;;18.36;58.31;101804.97;4147761;28;19925;-57
2023/08/07 08:19:27;;;;;;;;;;;;;;;18.38;58.04;101799.53;4148725;28;19929;-57
2023/08/07 08:21:39;;;;;;;;;;;;;;;18.39;58.36;101801.28;4148421;28;19955;-58
2023/08/07 08:23:52;;;;;;;;;;;;;;;18.38;58.20;101799.53;4148508;28;19930;-56
2023/08/07 08:25:53;;;;;;;;;;;;;;;18.40;58.13;101804.81;4148727;28;20310;-54
2023/08/07 08:27:55;;;;;;;;;;;;;;;18.40;58.27;101803.00;4147835;28;19932;-58
2023/08/07 08:29:57;;;;;;;;;;;;;;;18.40;58.06;101799.50;4148692;28;19956;-57
2023/08/07 08:31:58;;;;;;;;;;;;;;;18.41;57.98;101802.06;4148492;28;19941;-54
2023/08/07 08:34:00;;;;;;;;;;;;;;;18.43;57.92;101799.31;4147303;28;19925;-56
2023/08/07 08:36:01;;;;;;;;;;;;;;;18.44;58.00;101801.88;4148094;28;19926;-57
2023/08/07 08:38:03;;;;;;;;;;;;;;;18.45;58.29;101808.09;4146575;28;19931;-55
2023/08/07 08:40:06;;;;;;;;;;;;;;;18.47;58.08;101804.41;4148536;28;19932;-57
2023/08/07 08:42:10;;;;;;;;;;;;;;;18.48;58.03;101802.59;4148389;28;20377;-57
2023/08/07 08:44:12;;;;;;;;;;;;;;;18.49;57.91;101810.53;4148385;28;19932;-58
2023/08/07 08:46:15;;;;;;;;;;;;;;;18.50;57.65;101798.06;4147138;28;19925;-58
2023/08/07 08:48:21;;;;;;;;;;;;;;;18.51;57.97;101807.78;4146389;28;20415;-58
2023/08/07 08:50:23;;;;;;;;;;;;;;;18.51;58.13;101811.28;4148055;28;19925;-58
2023/08/07 08:52:26;;;;;;;;;;;;;;;18.52;57.89;101798.84;4148165;28;19980;-58
2023/08/07 08:54:28;;;;;;;;;;;;;;;18.52;57.91;101801.50;4148348;28;19925;-57
2023/08/07 08:56:30;;;;;;;;;;;;;;;18.54;57.98;101799.59;4147775;28;20387;-58
2023/08/07 08:58:32;;;;;;;;;;;;;;;18.52;57.60;101791.69;4147904;28;19995;-58
2023/08/07 09:00:34;;;;;;;;;;;;;;;18.51;58.07;101784.66;4148080;28;19933;-58
2023/08/07 09:02:36;;;;;;;;;;;;;;;18.52;58.03;101790.84;4148277;28;19949;-57
2023/08/07 09:04:37;;;;;;;;;;;;;;;18.52;58.00;101789.03;4147806;28;19930;-56
2023/08/07 09:06:39;;;;;;;;;;;;;;;18.52;57.53;101794.38;4146440;28;19975;-59
2023/08/07 09:08:45;;;;;;;;;;;;;;;18.54;57.68;101793.44;4148196;28;19929;-57
2023/08/07 09:10:46;;;;;;;;;;;;;;;18.54;57.88;101791.63;4147743;28;20498;-56
2023/08/07 09:13:00;;;;;;;;;;;;;;;18.54;57.84;101791.63;4148027;28;19936;-57
2023/08/07 09:15:03;;;;;;;;;;;;;;;18.57;57.77;101798.63;4148073;28;19927;-57
2023/08/07 09:17:05;;;;;;;;;;;;;;;18.59;57.67;101810.91;4147248;28;19925;-57
2023/08/07 09:19:06;;;;;;;;;;;;;;;18.58;57.82;101803.84;4147657;28;19963;-56
2023/08/07 09:21:08;;;;;;;;;;;;;;;18.60;57.68;101806.44;4146729;28;20012;-57
2023/08/07 09:23:09;;;;;;;;;;;;;;;18.60;57.77;101806.44;4147753;28;19925;-57
2023/08/07 09:25:11;;;;;;;;;;;;;;;18.60;57.70;101803.75;4148021;28;19926;-57
2023/08/07 09:27:13;;;;;;;;;;;;;;;18.60;57.67;101804.63;4146739;28;19932;-57
2023/08/07 09:29:15;;;;;;;;;;;;;;;18.62;57.63;101802.75;4147808;28;20351;-57
2023/08/07 09:31:16;;;;;;;;;;;;;;;18.63;57.52;101803.63;4146535;28;19956;-57
2023/08/07 09:33:25;;;;;;;;;;;;;;;18.64;57.55;101805.31;4147513;28;19933;-58
2023/08/07 09:35:28;;;;;;;;;;;;;;;18.65;57.52;101793.72;4147993;28;19925;-57
2023/08/07 09:37:30;;;;;;;;;;;;;;;18.66;57.38;101800.78;4147263;28;20357;-57
2023/08/07 09:39:32;;;;;;;;;;;;;;;18.65;57.22;101797.25;4147898;28;19925;-57
2023/08/07 09:41:35;;;;;;;;;;;;;;;18.66;57.44;101803.44;4147970;28;19996;-57
2023/08/07 09:43:36;;;;;;;;;;;;;;;18.67;57.41;101803.34;4147789;28;19961;-58
2023/08/07 09:45:39;;;;;;;;;;;;;;;18.67;57.16;101806.00;4147650;28;19929;-58
2023/08/07 09:47:42;;;;;;;;;;;;;;;18.69;57.41;101808.63;4146628;28;19925;-58
2023/08/07 09:49:44;;;;;;;;;;;;;;;18.70;57.29;101807.69;4147891;28;19925;-57
2023/08/07 09:51:46;;;;;;;;;;;;;;;18.70;57.11;101807.69;4147957;28;19926;-57
2023/08/07 09:53:49;;;;;;;;;;;;;;;18.70;57.25;101807.69;4147796;28;19992;-58
2023/08/07 09:55:52;;;;;;;;;;;;;;;18.70;57.19;101799.69;4147815;28;20336;-57
2023/08/07 09:57:53;;;;;;;;;;;;;;;18.72;57.37;101802.28;4146908;28;19925;-57
2023/08/07 09:59:55;;;;;;;;;;;;;;;18.70;57.13;101794.38;4147919;28;20000;-57
2023/08/07 10:01:56;;;;;;;;;;;;;;;18.71;57.00;101801.38;4147612;28;19932;-57
2023/08/07 10:03:58;;;;;;;;;;;;;;;18.72;57.17;101795.13;4147418;28;19936;-57
2023/08/07 10:06:00;;;;;;;;;;;;;;;18.72;57.31;101795.13;4147771;28;19933;-57
2023/08/07 10:08:02;;;;;;;;;;;;;;;18.74;56.91;101797.72;4146837;28;19925;-58
2023/08/07 10:10:04;;;;;;;;;;;;;;;18.74;57.03;101797.72;4147526;28;19932;-58
2023/08/07 10:12:06;;;;;;;;;;;;;;;18.75;57.18;101794.09;4147419;28;19934;-57
2023/08/07 10:14:11;;;;;;;;;;;;;;;18.76;57.01;101793.16;4150602;28;19932;-57
2023/08/07 10:16:13;;;;;;;;;;;;;;;18.76;57.17;101788.72;4150614;28;19926;-58
2023/08/07 10:18:15;;;;;;;;;;;;;;;18.77;56.94;101781.56;4149405;28;20355;-58
2023/08/07 10:20:17;;;;;;;;;;;;;;;18.77;57.05;101782.44;4150578;28;19971;-58
2023/08/07 10:22:19;;;;;;;;;;;;;;;18.78;56.67;101776.13;4150729;28;19968;-57
2023/08/07 10:24:22;;;;;;;;;;;;;;;18.79;56.79;101788.53;4150423;28;20446;-57
2023/08/07 10:26:24;;;;;;;;;;;;;;;18.78;56.86;101778.81;4150492;28;19955;-58